Terminal Aerodrome Forecast
Issued by NWS Duluth, MN

Home | Current Version | Previous Version | Text Only | Print | Product List | Glossary On
Versions: 1 2 3 4 5 6 7 8 9 10 11 12 13 14 15 16 17 18 19 20 21 22 23 24 25 26 27 28 29 30 31 32 33 34 35 36 37 38 39 40 41 42 43 44
000
FTUS43 KDLH 191500 AAA
TAFDLH
TAF AMD
KDLH 191511Z 1915/2012 33006KT P6SM VCSH OVC007
      TEMPO 1915/1917 5SM BR OVC005
     FM191700 30005KT P6SM VCSH OVC007
     FM191900 31007KT P6SM VCSH OVC015
     FM192100 32007KT P6SM VCSH SCT025 BKN035
     FM200200 VRB03KT 6SM BR SCT002 OVC015
     FM200600 VRB02KT 3/4SM BR OVC002=

USA.gov is the U.S. government's official web portal to all federal, state and local government web resources and services.